sensor_id;sensor_type;location;lat;lon;timestamp;pressure;altitude;pressure_sealevel;temperature;humidity
12624;BME280;6377;42.836;23.998;2023-05-29T00:01:07;95528.16;;;15.73;100.00
12624;BME280;6377;42.836;23.998;2023-05-29T00:03:35;95530.59;;;15.74;100.00
12624;BME280;6377;42.836;23.998;2023-05-29T00:06:03;95525.06;;;15.76;100.00
12624;BME280;6377;42.836;23.998;2023-05-29T00:08:33;95524.63;;;15.79;100.00
12624;BME280;6377;42.836;23.998;2023-05-29T00:11:00;95528.91;;;15.80;100.00
12624;BME280;6377;42.836;23.998;2023-05-29T00:13:27;95516.44;;;15.74;100.00
12624;BME280;6377;42.836;23.998;2023-05-29T00:15:54;95529.59;;;15.68;100.00
12624;BME280;6377;42.836;23.998;2023-05-29T00:18:22;95521.63;;;15.62;100.00
12624;BME280;6377;42.836;23.998;2023-05-29T00:20:49;95527.19;;;15.60;100.00
12624;BME280;6377;42.836;23.998;2023-05-29T00:23:18;95527.78;;;15.62;100.00
12624;BME280;6377;42.836;23.998;2023-05-29T00:25:47;95530.81;;;15.73;100.00
12624;BME280;6377;42.836;23.998;2023-05-29T00:28:14;95530.00;;;15.72;100.00
12624;BME280;6377;42.836;23.998;2023-05-29T00:30:41;95500.72;;;15.59;100.00
12624;BME280;6377;42.836;23.998;2023-05-29T00:33:08;95524.00;;;15.77;100.00
12624;BME280;6377;42.836;23.998;2023-05-29T00:35:36;95526.25;;;15.80;100.00
12624;BME280;6377;42.836;23.998;2023-05-29T00:38:03;95527.31;;;15.79;100.00
12624;BME280;6377;42.836;23.998;2023-05-29T00:40:30;95530.19;;;15.70;100.00
12624;BME280;6377;42.836;23.998;2023-05-29T00:42:59;95530.25;;;15.64;100.00
12624;BME280;6377;42.836;23.998;2023-05-29T00:45:26;95527.19;;;15.60;100.00
12624;BME280;6377;42.836;23.998;2023-05-29T00:47:53;95534.34;;;15.66;100.00
12624;BME280;6377;42.836;23.998;2023-05-29T00:50:21;95532.28;;;15.68;100.00
12624;BME280;6377;42.836;23.998;2023-05-29T00:52:50;95532.69;;;15.65;100.00
12624;BME280;6377;42.836;23.998;2023-05-29T00:55:18;95523.50;;;15.61;100.00
12624;BME280;6377;42.836;23.998;2023-05-29T00:57:46;95524.09;;;15.63;100.00
12624;BME280;6377;42.836;23.998;2023-05-29T01:00:16;95515.38;;;15.50;100.00
12624;BME280;6377;42.836;23.998;2023-05-29T01:02:44;95523.53;;;15.55;100.00
12624;BME280;6377;42.836;23.998;2023-05-29T01:05:11;95528.63;;;15.56;100.00
12624;BME280;6377;42.836;23.998;2023-05-29T01:07:39;95487.13;;;15.29;100.00
12624;BME280;6377;42.836;23.998;2023-05-29T01:10:07;95520.69;;;15.43;100.00
12624;BME280;6377;42.836;23.998;2023-05-29T01:12:38;95484.75;;;15.01;100.00
12624;BME280;6377;42.836;23.998;2023-05-29T01:15:31;95518.03;;;15.37;100.00
12624;BME280;6377;42.836;23.998;2023-05-29T01:18:12;95519.44;;;15.46;100.00
12624;BME280;6377;42.836;23.998;2023-05-29T01:20:47;95501.19;;;15.43;100.00
12624;BME280;6377;42.836;23.998;2023-05-29T01:23:27;95518.13;;;15.68;100.00
12624;BME280;6377;42.836;23.998;2023-05-29T01:26:11;95515.44;;;15.68;100.00
12624;BME280;6377;42.836;23.998;2023-05-29T01:28:48;95526.06;;;15.81;100.00
12624;BME280;6377;42.836;23.998;2023-05-29T01:31:19;95503.34;;;15.72;100.00
12624;BME280;6377;42.836;23.998;2023-05-29T01:33:52;95515.16;;;15.83;100.00
12624;BME280;6377;42.836;23.998;2023-05-29T01:36:19;95505.13;;;15.85;100.00
12624;BME280;6377;42.836;23.998;2023-05-29T01:38:47;95512.59;;;16.01;100.00
12624;BME280;6377;42.836;23.998;2023-05-29T01:41:15;95493.78;;;15.89;100.00
12624;BME280;6377;42.836;23.998;2023-05-29T01:43:44;95510.50;;;16.03;100.00
12624;BME280;6377;42.836;23.998;2023-05-29T01:46:13;95504.50;;;16.14;100.00
12624;BME280;6377;42.836;23.998;2023-05-29T01:48:41;95469.34;;;15.92;100.00
12624;BME280;6377;42.836;23.998;2023-05-29T01:51:08;95500.16;;;16.19;100.00
12624;BME280;6377;42.836;23.998;2023-05-29T01:53:36;95420.69;;;15.72;100.00
12624;BME280;6377;42.836;23.998;2023-05-29T01:56:05;95487.00;;;16.18;100.00
12624;BME280;6377;42.836;23.998;2023-05-29T01:58:32;95485.59;;;16.15;100.00
12624;BME280;6377;42.836;23.998;2023-05-29T02:01:02;95489.31;;;16.14;100.00
12624;BME280;6377;42.836;23.998;2023-05-29T02:03:31;95474.84;;;15.97;100.00
12624;BME280;6377;42.836;23.998;2023-05-29T02:05:59;95495.28;;;16.10;100.00
12624;BME280;6377;42.836;23.998;2023-05-29T02:08:27;95500.59;;;16.16;100.00
12624;BME280;6377;42.836;23.998;2023-05-29T02:10:54;95471.81;;;15.94;100.00
12624;BME280;6377;42.836;23.998;2023-05-29T02:13:21;95488.31;;;16.09;100.00
12624;BME280;6377;42.836;23.998;2023-05-29T02:15:49;95451.81;;;15.78;100.00
12624;BME280;6377;42.836;23.998;2023-05-29T02:18:17;95497.06;;;15.91;100.00
12624;BME280;6377;42.836;23.998;2023-05-29T02:20:45;95496.69;;;15.88;100.00
12624;BME280;6377;42.836;23.998;2023-05-29T02:23:12;95499.56;;;15.86;100.00
12624;BME280;6377;42.836;23.998;2023-05-29T02:25:41;95498.25;;;15.95;100.00
12624;BME280;6377;42.836;23.998;2023-05-29T02:28:08;95502.94;;;16.00;100.00
12624;BME280;6377;42.836;23.998;2023-05-29T02:30:35;95501.50;;;16.04;100.00
12624;BME280;6377;42.836;23.998;2023-05-29T02:33:03;95496.75;;;16.06;100.00
12624;BME280;6377;42.836;23.998;2023-05-29T02:35:31;95497.56;;;16.06;100.00
12624;BME280;6377;42.836;23.998;2023-05-29T02:37:59;95505.41;;;16.01;100.00
12624;BME280;6377;42.836;23.998;2023-05-29T02:40:26;95502.34;;;15.98;100.00
12624;BME280;6377;42.836;23.998;2023-05-29T02:42:53;95501.53;;;15.97;100.00
12624;BME280;6377;42.836;23.998;2023-05-29T02:45:20;95503.34;;;16.03;100.00
12624;BME280;6377;42.836;23.998;2023-05-29T02:47:47;95460.09;;;15.70;100.00
12624;BME280;6377;42.836;23.998;2023-05-29T02:50:15;95451.88;;;15.65;100.00
12624;BME280;6377;42.836;23.998;2023-05-29T02:52:43;95506.06;;;15.97;100.00
12624;BME280;6377;42.836;23.998;2023-05-29T02:55:10;95507.94;;;15.90;100.00
12624;BME280;6377;42.836;23.998;2023-05-29T02:57:38;95504.19;;;15.97;100.00
12624;BME280;6377;42.836;23.998;2023-05-29T03:00:06;95505.41;;;16.01;100.00
12624;BME280;6377;42.836;23.998;2023-05-29T03:02:34;95499.63;;;16.04;100.00
12624;BME280;6377;42.836;23.998;2023-05-29T03:05:01;95500.63;;;16.10;100.00
12624;BME280;6377;42.836;23.998;2023-05-29T03:07:29;95463.03;;;15.87;100.00
12624;BME280;6377;42.836;23.998;2023-05-29T03:09:57;95501.06;;;16.07;100.00
12624;BME280;6377;42.836;23.998;2023-05-29T03:12:25;95501.66;;;16.09;100.00
12624;BME280;6377;42.836;23.998;2023-05-29T03:14:53;95500.44;;;16.11;100.00
12624;BME280;6377;42.836;23.998;2023-05-29T03:17:21;95500.59;;;16.16;100.00
12624;BME280;6377;42.836;23.998;2023-05-29T03:19:49;95498.75;;;16.17;100.00
12624;BME280;6377;42.836;23.998;2023-05-29T03:22:16;95506.50;;;16.18;100.00
12624;BME280;6377;42.836;23.998;2023-05-29T03:24:43;95446.88;;;15.82;100.00
12624;BME280;6377;42.836;23.998;2023-05-29T03:27:12;95507.22;;;16.07;100.00
12624;BME280;6377;42.836;23.998;2023-05-29T03:29:39;95512.97;;;16.04;100.00
12624;BME280;6377;42.836;23.998;2023-05-29T03:32:07;95513.84;;;15.98;100.00
12624;BME280;6377;42.836;23.998;2023-05-29T03:34:34;95518.81;;;15.88;100.00
12624;BME280;6377;42.836;23.998;2023-05-29T03:37:01;95513.88;;;15.92;100.00
12624;BME280;6377;42.836;23.998;2023-05-29T03:39:29;95522.94;;;15.91;100.00
12624;BME280;6377;42.836;23.998;2023-05-29T03:41:56;95520.06;;;15.86;100.00
12624;BME280;6377;42.836;23.998;2023-05-29T03:44:24;95538.88;;;15.97;100.00
12624;BME280;6377;42.836;23.998;2023-05-29T03:46:51;95539.72;;;15.91;100.00
12624;BME280;6377;42.836;23.998;2023-05-29T03:49:18;95540.78;;;15.90;100.00
12624;BME280;6377;42.836;23.998;2023-05-29T03:51:45;95538.50;;;15.94;100.00
12624;BME280;6377;42.836;23.998;2023-05-29T03:54:12;95532.13;;;15.95;100.00
12624;BME280;6377;42.836;23.998;2023-05-29T03:56:40;95529.63;;;16.00;100.00
12624;BME280;6377;42.836;23.998;2023-05-29T03:59:07;95528.84;;;15.93;100.00
12624;BME280;6377;42.836;23.998;2023-05-29T04:01:35;95527.41;;;15.97;100.00
12624;BME280;6377;42.836;23.998;2023-05-29T04:04:03;95479.19;;;15.67;100.00
12624;BME280;6377;42.836;23.998;2023-05-29T04:06:30;95527.56;;;16.02;100.00
12624;BME280;6377;42.836;23.998;2023-05-29T04:08:57;95495.25;;;15.85;100.00
12624;BME280;6377;42.836;23.998;2023-05-29T04:11:25;95533.22;;;16.12;100.00
12624;BME280;6377;42.836;23.998;2023-05-29T04:13:52;95525.94;;;16.01;100.00
12624;BME280;6377;42.836;23.998;2023-05-29T04:16:19;95536.63;;;15.94;100.00
12624;BME280;6377;42.836;23.998;2023-05-29T04:18:48;95545.31;;;15.83;100.00
12624;BME280;6377;42.836;23.998;2023-05-29T04:21:15;95550.06;;;15.81;100.00
12624;BME280;6377;42.836;23.998;2023-05-29T04:23:42;95545.16;;;15.78;100.00
12624;BME280;6377;42.836;23.998;2023-05-29T04:26:09;95542.50;;;15.72;100.00
12624;BME280;6377;42.836;23.998;2023-05-29T04:28:38;95545.19;;;15.72;100.00
12624;BME280;6377;42.836;23.998;2023-05-29T04:31:05;95546.59;;;15.74;100.00
12624;BME280;6377;42.836;23.998;2023-05-29T04:33:32;95546.41;;;15.76;100.00
12624;BME280;6377;42.836;23.998;2023-05-29T04:36:04;95535.97;;;15.67;100.00
12624;BME280;6377;42.836;23.998;2023-05-29T04:38:34;95553.16;;;15.78;100.00
12624;BME280;6377;42.836;23.998;2023-05-29T04:41:02;95552.88;;;15.86;100.00
12624;BME280;6377;42.836;23.998;2023-05-29T04:43:31;95555.69;;;15.98;100.00
12624;BME280;6377;42.836;23.998;2023-05-29T04:46:01;95556.53;;;15.98;100.00
12624;BME280;6377;42.836;23.998;2023-05-29T04:48:29;95564.75;;;15.97;100.00
12624;BME280;6377;42.836;23.998;2023-05-29T04:50:56;95518.69;;;15.77;100.00
12624;BME280;6377;42.836;23.998;2023-05-29T04:53:26;95560.19;;;16.04;100.00
12624;BME280;6377;42.836;23.998;2023-05-29T04:55:53;95558.94;;;16.06;100.00
12624;BME280;6377;42.836;23.998;2023-05-29T04:58:21;95567.97;;;16.05;100.00
12624;BME280;6377;42.836;23.998;2023-05-29T05:00:50;95569.13;;;16.16;100.00
12624;BME280;6377;42.836;23.998;2023-05-29T05:03:17;95531.50;;;15.99;100.00
12624;BME280;6377;42.836;23.998;2023-05-29T05:05:44;95568.66;;;16.25;100.00
12624;BME280;6377;42.836;23.998;2023-05-29T05:08:11;95571.09;;;16.27;100.00
12624;BME280;6377;42.836;23.998;2023-05-29T05:10:40;95574.34;;;16.36;100.00
12624;BME280;6377;42.836;23.998;2023-05-29T05:13:07;95574.09;;;16.44;100.00
12624;BME280;6377;42.836;23.998;2023-05-29T05:15:34;95576.53;;;16.45;100.00
12624;BME280;6377;42.836;23.998;2023-05-29T05:18:01;95575.25;;;16.54;100.00
12624;BME280;6377;42.836;23.998;2023-05-29T05:20:29;95568.81;;;16.62;100.00
12624;BME280;6377;42.836;23.998;2023-05-29T05:22:57;95555.91;;;16.59;100.00
12624;BME280;6377;42.836;23.998;2023-05-29T05:25:25;95522.53;;;16.43;100.00
12624;BME280;6377;42.836;23.998;2023-05-29T05:27:54;95591.66;;;16.83;100.00
12624;BME280;6377;42.836;23.998;2023-05-29T05:30:21;95565.03;;;16.45;100.00
12624;BME280;6377;42.836;23.998;2023-05-29T05:32:48;95592.09;;;16.55;100.00
12624;BME280;6377;42.836;23.998;2023-05-29T05:35:15;95588.16;;;16.26;100.00
12624;BME280;6377;42.836;23.998;2023-05-29T05:37:43;95577.59;;;16.06;100.00
12624;BME280;6377;42.836;23.998;2023-05-29T05:40:10;95593.56;;;16.13;100.00
12624;BME280;6377;42.836;23.998;2023-05-29T05:42:38;95518.91;;;15.75;100.00
12624;BME280;6377;42.836;23.998;2023-05-29T05:45:08;95595.16;;;16.20;100.00
12624;BME280;6377;42.836;23.998;2023-05-29T05:47:35;95575.75;;;16.07;100.00
12624;BME280;6377;42.836;23.998;2023-05-29T05:50:03;95591.47;;;16.21;100.00
12624;BME280;6377;42.836;23.998;2023-05-29T05:52:30;95588.81;;;16.21;100.00
12624;BME280;6377;42.836;23.998;2023-05-29T05:54:59;95550.28;;;16.11;100.00
12624;BME280;6377;42.836;23.998;2023-05-29T05:57:26;95576.56;;;16.39;100.00
12624;BME280;6377;42.836;23.998;2023-05-29T05:59:54;95582.44;;;16.54;100.00
12624;BME280;6377;42.836;23.998;2023-05-29T06:02:23;95570.03;;;16.66;100.00
12624;BME280;6377;42.836;23.998;2023-05-29T06:04:50;95559.56;;;16.64;100.00
12624;BME280;6377;42.836;23.998;2023-05-29T06:07:17;95557.06;;;16.69;100.00
12624;BME280;6377;42.836;23.998;2023-05-29T06:09:44;95571.09;;;16.83;100.00
12624;BME280;6377;42.836;23.998;2023-05-29T06:12:12;95572.25;;;16.94;100.00
12624;BME280;6377;42.836;23.998;2023-05-29T06:14:39;95580.19;;;17.00;100.00
12624;BME280;6377;42.836;23.998;2023-05-29T06:17:06;95583.31;;;16.97;100.00
12624;BME280;6377;42.836;23.998;2023-05-29T06:19:35;95588.22;;;17.00;100.00
12624;BME280;6377;42.836;23.998;2023-05-29T06:22:02;95562.66;;;16.86;100.00
12624;BME280;6377;42.836;23.998;2023-05-29T06:24:29;95583.34;;;17.15;100.00
12624;BME280;6377;42.836;23.998;2023-05-29T06:26:57;95586.09;;;17.27;100.00
12624;BME280;6377;42.836;23.998;2023-05-29T06:29:24;95579.34;;;17.43;100.00
12624;BME280;6377;42.836;23.998;2023-05-29T06:31:51;95580.78;;;17.63;100.00
12624;BME280;6377;42.836;23.998;2023-05-29T06:34:18;95575.56;;;17.68;100.00
12624;BME280;6377;42.836;23.998;2023-05-29T06:36:47;95576.50;;;17.92;100.00
12624;BME280;6377;42.836;23.998;2023-05-29T06:39:15;95582.91;;;17.91;100.00
12624;BME280;6377;42.836;23.998;2023-05-29T06:41:43;95585.47;;;17.68;100.00
12624;BME280;6377;42.836;23.998;2023-05-29T06:44:11;95578.63;;;17.72;100.00
12624;BME280;6377;42.836;23.998;2023-05-29T06:46:38;95579.72;;;17.82;100.00
12624;BME280;6377;42.836;23.998;2023-05-29T06:49:05;95583.09;;;17.78;100.00
12624;BME280;6377;42.836;23.998;2023-05-29T06:51:33;95577.22;;;17.87;100.00
12624;BME280;6377;42.836;23.998;2023-05-29T06:54:02;95571.53;;;17.96;100.00
12624;BME280;6377;42.836;23.998;2023-05-29T06:56:29;95570.88;;;18.12;100.00
12624;BME280;6377;42.836;23.998;2023-05-29T06:58:57;95551.94;;;18.13;100.00
12624;BME280;6377;42.836;23.998;2023-05-29T07:01:24;95580.03;;;18.22;100.00
12624;BME280;6377;42.836;23.998;2023-05-29T07:03:52;95581.19;;;18.26;100.00
12624;BME280;6377;42.836;23.998;2023-05-29T07:06:19;95577.38;;;18.34;100.00
12624;BME280;6377;42.836;23.998;2023-05-29T07:08:47;95577.13;;;18.35;100.00
12624;BME280;6377;42.836;23.998;2023-05-29T07:11:15;95582.16;;;18.43;100.00
12624;BME280;6377;42.836;23.998;2023-05-29T07:13:43;95583.34;;;18.47;100.00
12624;BME280;6377;42.836;23.998;2023-05-29T07:16:10;95587.34;;;18.57;100.00
12624;BME280;6377;42.836;23.998;2023-05-29T07:18:37;95583.19;;;18.72;100.00
12624;BME280;6377;42.836;23.998;2023-05-29T07:21:05;95582.97;;;18.85;100.00
12624;BME280;6377;42.836;23.998;2023-05-29T07:23:32;95588.88;;;18.76;100.00
12624;BME280;6377;42.836;23.998;2023-05-29T07:25:59;95586.34;;;18.69;100.00
12624;BME280;6377;42.836;23.998;2023-05-29T07:28:28;95585.88;;;18.72;100.00
12624;BME280;6377;42.836;23.998;2023-05-29T07:30:55;95563.72;;;18.54;100.00
12624;BME280;6377;42.836;23.998;2023-05-29T07:33:23;95561.31;;;18.34;100.00
12624;BME280;6377;42.836;23.998;2023-05-29T07:35:50;95583.41;;;18.59;100.00
12624;BME280;6377;42.836;23.998;2023-05-29T07:38:18;95592.19;;;18.78;100.00
12624;BME280;6377;42.836;23.998;2023-05-29T07:40:45;95594.28;;;18.87;100.00
12624;BME280;6377;42.836;23.998;2023-05-29T07:43:12;95603.59;;;18.96;100.00
12624;BME280;6377;42.836;23.998;2023-05-29T07:45:41;95601.63;;;19.03;100.00
12624;BME280;6377;42.836;23.998;2023-05-29T07:48:08;95599.19;;;19.25;100.00
12624;BME280;6377;42.836;23.998;2023-05-29T07:50:35;95601.16;;;19.30;100.00
12624;BME280;6377;42.836;23.998;2023-05-29T07:53:03;95611.44;;;19.33;100.00
12624;BME280;6377;42.836;23.998;2023-05-29T07:55:30;95603.63;;;19.31;100.00
12624;BME280;6377;42.836;23.998;2023-05-29T07:57:58;95604.09;;;19.28;100.00
12624;BME280;6377;42.836;23.998;2023-05-29T08:00:25;95599.19;;;19.25;100.00
12624;BME280;6377;42.836;23.998;2023-05-29T08:02:55;95560.84;;;18.78;100.00
12624;BME280;6377;42.836;23.998;2023-05-29T08:05:23;95581.13;;;18.97;100.00
12624;BME280;6377;42.836;23.998;2023-05-29T08:07:50;95613.53;;;19.31;100.00
12624;BME280;6377;42.836;23.998;2023-05-29T08:10:18;95612.81;;;19.35;100.00
12624;BME280;6377;42.836;23.998;2023-05-29T08:12:45;95613.28;;;19.32;100.00
12624;BME280;6377;42.836;23.998;2023-05-29T08:15:12;95612.81;;;19.24;100.00
12624;BME280;6377;42.836;23.998;2023-05-29T08:17:41;95608.38;;;19.29;100.00
12624;BME280;6377;42.836;23.998;2023-05-29T08:20:10;95604.78;;;19.35;100.00
12624;BME280;6377;42.836;23.998;2023-05-29T08:22:37;95611.22;;;19.58;100.00
12624;BME280;6377;42.836;23.998;2023-05-29T08:25:05;95603.69;;;19.83;100.00
12624;BME280;6377;42.836;23.998;2023-05-29T08:27:33;95609.59;;;19.96;100.00
12624;BME280;6377;42.836;23.998;2023-05-29T08:30:02;95605.13;;;20.13;100.00
12624;BME280;6377;42.836;23.998;2023-05-29T08:32:29;95612.44;;;20.30;100.00
12624;BME280;6377;42.836;23.998;2023-05-29T08:34:56;95607.50;;;20.38;100.00
12624;BME280;6377;42.836;23.998;2023-05-29T08:37:25;95609.69;;;20.41;100.00
12624;BME280;6377;42.836;23.998;2023-05-29T08:39:52;95613.91;;;20.37;100.00
12624;BME280;6377;42.836;23.998;2023-05-29T08:42:23;95604.25;;;20.25;100.00
12624;BME280;6377;42.836;23.998;2023-05-29T08:44:56;95598.13;;;20.41;100.00
12624;BME280;6377;42.836;23.998;2023-05-29T08:47:26;95594.34;;;20.53;100.00
12624;BME280;6377;42.836;23.998;2023-05-29T08:49:54;95561.50;;;20.35;100.00
12624;BME280;6377;42.836;23.998;2023-05-29T08:52:23;95535.03;;;19.98;100.00
12624;BME280;6377;42.836;23.998;2023-05-29T08:54:52;95599.69;;;20.37;100.00
12624;BME280;6377;42.836;23.998;2023-05-29T08:57:20;95593.72;;;20.35;100.00
12624;BME280;6377;42.836;23.998;2023-05-29T08:59:51;95575.03;;;20.40;100.00
12624;BME280;6377;42.836;23.998;2023-05-29T09:02:18;95593.53;;;20.53;100.00
12624;BME280;6377;42.836;23.998;2023-05-29T09:04:46;95593.19;;;20.49;100.00
12624;BME280;6377;42.836;23.998;2023-05-29T09:07:14;95588.47;;;20.56;100.00
12624;BME280;6377;42.836;23.998;2023-05-29T09:09:42;95587.50;;;20.79;100.00
12624;BME280;6377;42.836;23.998;2023-05-29T09:12:11;95591.44;;;20.88;100.00
12624;BME280;6377;42.836;23.998;2023-05-29T09:14:40;95593.66;;;21.08;100.00
12624;BME280;6377;42.836;23.998;2023-05-29T09:17:10;95584.84;;;21.29;100.00
12624;BME280;6377;42.836;23.998;2023-05-29T09:19:38;95584.13;;;21.34;100.00
12624;BME280;6377;42.836;23.998;2023-05-29T09:22:07;95582.53;;;21.38;100.00
12624;BME280;6377;42.836;23.998;2023-05-29T09:24:36;95589.56;;;21.39;100.00
12624;BME280;6377;42.836;23.998;2023-05-29T09:27:04;95571.31;;;21.24;100.00
12624;BME280;6377;42.836;23.998;2023-05-29T09:29:38;95580.69;;;21.21;100.00
12624;BME280;6377;42.836;23.998;2023-05-29T09:32:07;95581.91;;;21.14;100.00
12624;BME280;6377;42.836;23.998;2023-05-29T09:34:36;95592.38;;;21.10;100.00
12624;BME280;6377;42.836;23.998;2023-05-29T09:37:05;95580.59;;;21.00;100.00
12624;BME280;6377;42.836;23.998;2023-05-29T09:39:44;95563.56;;;20.61;100.00
12624;BME280;6377;42.836;23.998;2023-05-29T09:42:12;95583.44;;;20.60;100.00
12624;BME280;6377;42.836;23.998;2023-05-29T09:44:41;95567.31;;;20.60;100.00
12624;BME280;6377;42.836;23.998;2023-05-29T09:47:09;95577.31;;;20.48;100.00
12624;BME280;6377;42.836;23.998;2023-05-29T09:49:41;95577.66;;;20.51;100.00
12624;BME280;6377;42.836;23.998;2023-05-29T09:52:10;95576.69;;;20.57;100.00
12624;BME280;6377;42.836;23.998;2023-05-29T09:54:41;95567.66;;;20.63;100.00
12624;BME280;6377;42.836;23.998;2023-05-29T09:57:12;95526.97;;;20.27;100.00
12624;BME280;6377;42.836;23.998;2023-05-29T09:59:43;95563.25;;;20.57;100.00
12624;BME280;6377;42.836;23.998;2023-05-29T10:02:13;95571.13;;;20.64;100.00
12624;BME280;6377;42.836;23.998;2023-05-29T10:04:41;95586.00;;;20.38;100.00
12624;BME280;6377;42.836;23.998;2023-05-29T10:07:19;95577.59;;;20.35;100.00
12624;BME280;6377;42.836;23.998;2023-05-29T10:09:49;95570.66;;;20.22;100.00
12624;BME280;6377;42.836;23.998;2023-05-29T10:12:20;95536.16;;;20.02;100.00
12624;BME280;6377;42.836;23.998;2023-05-29T10:14:49;95581.72;;;20.26;100.00
12624;BME280;6377;42.836;23.998;2023-05-29T10:17:19;95578.38;;;20.19;100.00
12624;BME280;6377;42.836;23.998;2023-05-29T10:19:49;95581.31;;;20.05;100.00
12624;BME280;6377;42.836;23.998;2023-05-29T10:22:19;95582.13;;;20.06;100.00
12624;BME280;6377;42.836;23.998;2023-05-29T10:24:48;95581.50;;;19.87;100.00
12624;BME280;6377;42.836;23.998;2023-05-29T10:27:18;95591.16;;;19.37;100.00
12624;BME280;6377;42.836;23.998;2023-05-29T10:29:52;95589.41;;;19.19;100.00
12624;BME280;6377;42.836;23.998;2023-05-29T10:32:27;95578.78;;;19.13;100.00
12624;BME280;6377;42.836;23.998;2023-05-29T10:35:01;95570.19;;;18.99;100.00
12624;BME280;6377;42.836;23.998;2023-05-29T10:37:39;95579.47;;;19.08;100.00
12624;BME280;6377;42.836;23.998;2023-05-29T10:40:08;95536.94;;;18.65;100.00
12624;BME280;6377;42.836;23.998;2023-05-29T10:42:41;95556.97;;;18.74;100.00
12624;BME280;6377;42.836;23.998;2023-05-29T10:45:13;95579.81;;;18.88;100.00
12624;BME280;6377;42.836;23.998;2023-05-29T10:50:58;95572.41;;;19.02;100.00
12624;BME280;6377;42.836;23.998;2023-05-29T10:53:26;95578.09;;;19.06;100.00
12624;BME280;6377;42.836;23.998;2023-05-29T10:55:59;95581.13;;;19.21;100.00
12624;BME280;6377;42.836;23.998;2023-05-29T10:58:26;95574.13;;;19.31;100.00
12624;BME280;6377;42.836;23.998;2023-05-29T11:00:55;95551.59;;;19.55;100.00
12624;BME280;6377;42.836;23.998;2023-05-29T11:03:25;95568.63;;;20.29;100.00
12624;BME280;6377;42.836;23.998;2023-05-29T11:06:00;95553.88;;;20.77;100.00
12624;BME280;6377;42.836;23.998;2023-05-29T11:08:29;95557.53;;;21.20;100.00
12624;BME280;6377;42.836;23.998;2023-05-29T11:10:59;95557.59;;;21.64;100.00
12624;BME280;6377;42.836;23.998;2023-05-29T11:13:32;95494.94;;;22.17;100.00
12624;BME280;6377;42.836;23.998;2023-05-29T11:16:10;95544.06;;;23.19;100.00
12624;BME280;6377;42.836;23.998;2023-05-29T11:18:43;95558.72;;;23.70;100.00
12624;BME280;6377;42.836;23.998;2023-05-29T11:21:30;95546.16;;;24.01;100.00
12624;BME280;6377;42.836;23.998;2023-05-29T11:24:00;95540.56;;;24.28;97.83
12624;BME280;6377;42.836;23.998;2023-05-29T11:26:30;95546.25;;;23.59;97.65
12624;BME280;6377;42.836;23.998;2023-05-29T11:28:59;95507.94;;;23.20;100.00
12624;BME280;6377;42.836;23.998;2023-05-29T11:31:28;95549.16;;;22.74;100.00
12624;BME280;6377;42.836;23.998;2023-05-29T11:34:00;95552.63;;;22.43;100.00
12624;BME280;6377;42.836;23.998;2023-05-29T11:36:31;95510.91;;;21.75;100.00
12624;BME280;6377;42.836;23.998;2023-05-29T11:38:58;95519.03;;;21.58;100.00
12624;BME280;6377;42.836;23.998;2023-05-29T11:41:26;95549.53;;;21.42;100.00
12624;BME280;6377;42.836;23.998;2023-05-29T11:43:57;95521.63;;;20.60;100.00
12624;BME280;6377;42.836;23.998;2023-05-29T11:46:25;95524.13;;;20.33;100.00
12624;BME280;6377;42.836;23.998;2023-05-29T11:48:55;95545.19;;;20.25;100.00
12624;BME280;6377;42.836;23.998;2023-05-29T11:51:22;95546.72;;;19.92;100.00
12624;BME280;6377;42.836;23.998;2023-05-29T11:53:50;95543.31;;;19.97;100.00
12624;BME280;6377;42.836;23.998;2023-05-29T11:56:23;95544.41;;;20.12;100.00
12624;BME280;6377;42.836;23.998;2023-05-29T11:58:51;95546.13;;;20.19;100.00
12624;BME280;6377;42.836;23.998;2023-05-29T12:01:21;95547.41;;;20.28;100.00
12624;BME280;6377;42.836;23.998;2023-05-29T12:03:49;95477.34;;;19.73;100.00
12624;BME280;6377;42.836;23.998;2023-05-29T12:06:32;95548.25;;;20.17;100.00
12624;BME280;6377;42.836;23.998;2023-05-29T12:09:00;95540.97;;;20.29;100.00
12624;BME280;6377;42.836;23.998;2023-05-29T12:11:28;95498.69;;;20.07;100.00
12624;BME280;6377;42.836;23.998;2023-05-29T12:13:56;95488.78;;;20.25;100.00
12624;BME280;6377;42.836;23.998;2023-05-29T12:16:25;95537.50;;;20.61;100.00
12624;BME280;6377;42.836;23.998;2023-05-29T12:18:53;95536.03;;;20.71;100.00
12624;BME280;6377;42.836;23.998;2023-05-29T12:21:21;95479.38;;;20.39;100.00
12624;BME280;6377;42.836;23.998;2023-05-29T12:23:53;95532.94;;;20.79;100.00
12624;BME280;6377;42.836;23.998;2023-05-29T12:26:22;95534.25;;;20.76;100.00
12624;BME280;6377;42.836;23.998;2023-05-29T12:28:50;95528.81;;;20.54;100.00
12624;BME280;6377;42.836;23.998;2023-05-29T12:31:26;95521.47;;;20.50;100.00
12624;BME280;6377;42.836;23.998;2023-05-29T12:33:59;95504.28;;;20.34;100.00
12624;BME280;6377;42.836;23.998;2023-05-29T12:36:26;95513.31;;;20.28;100.00
12624;BME280;6377;42.836;23.998;2023-05-29T12:38:55;95526.75;;;20.28;100.00
12624;BME280;6377;42.836;23.998;2023-05-29T12:41:25;95484.91;;;19.76;100.00
12624;BME280;6377;42.836;23.998;2023-05-29T12:43:53;95508.38;;;19.80;100.00
12624;BME280;6377;42.836;23.998;2023-05-29T12:46:23;95517.72;;;19.78;100.00
12624;BME280;6377;42.836;23.998;2023-05-29T12:48:52;95484.34;;;19.45;100.00
12624;BME280;6377;42.836;23.998;2023-05-29T12:51:22;95526.19;;;19.46;100.00
12624;BME280;6377;42.836;23.998;2023-05-29T12:53:50;95527.13;;;19.40;100.00
12624;BME280;6377;42.836;23.998;2023-05-29T12:56:22;95487.16;;;19.16;100.00
12624;BME280;6377;42.836;23.998;2023-05-29T12:58:52;95531.56;;;19.46;100.00
12624;BME280;6377;42.836;23.998;2023-05-29T13:01:19;95534.81;;;19.37;100.00